Time;durP1;ratioP1;P1;durP2;ratioP2;P2;SDS_P1;SDS_P2;PMS_P1;PMS_P2;Temp;Humidity;BMP_temperature;BMP_pressure;BME280_temperature;BME280_humidity;BME280_pressure;Samples;Min_cycle;Max_cycle;Signal;HPM_P1;HPM_P2
2023/06/01 00:00:09;;;;;;;0.73;0.60;;;24.00;61.30;;;;;;5070073;28;20657;-86
2023/06/01 00:02:37;;;;;;;0.73;0.60;;;24.00;61.20;;;;;;5066663;28;20186;-85
2023/06/01 00:05:08;;;;;;;1.50;1.13;;;24.00;61.10;;;;;;5068874;28;20620;-86
2023/06/01 00:07:37;;;;;;;1.75;0.70;;;24.00;61.00;;;;;;5065089;28;20229;-86
2023/06/01 00:10:06;;;;;;;0.50;0.50;;;24.00;60.90;;;;;;5062018;28;20554;-86
2023/06/01 00:12:35;;;;;;;0.63;0.63;;;24.00;61.00;;;;;;5059339;28;20297;-86
2023/06/01 00:15:04;;;;;;;1.27;1.05;;;24.00;60.90;;;;;;5055381;28;20229;-86
2023/06/01 00:17:33;;;;;;;1.10;1.00;;;24.00;60.80;;;;;;5066187;28;20194;-86
2023/06/01 00:20:05;;;;;;;1.70;1.00;;;24.00;60.80;;;;;;5062238;28;20349;-86
2023/06/01 00:22:38;;;;;;;0.98;0.93;;;24.00;60.60;;;;;;5066732;28;20186;-86
2023/06/01 00:25:08;;;;;;;0.75;0.75;;;24.00;60.50;;;;;;5062216;28;20285;-85
2023/06/01 00:27:37;;;;;;;0.90;0.40;;;24.00;60.60;;;;;;5062064;28;20202;-86
2023/06/01 00:30:07;;;;;;;0.55;0.55;;;24.00;60.60;;;;;;5058275;28;20283;-85
2023/06/01 00:32:35;;;;;;;0.63;0.63;;;24.00;60.50;;;;;;5070154;28;20278;-85
2023/06/01 00:35:04;;;;;;;1.25;1.00;;;24.00;60.30;;;;;;5065247;28;20238;-85
2023/06/01 00:37:32;;;;;;;1.45;0.70;;;24.00;60.30;;;;;;5059041;28;20199;-84
2023/06/01 00:40:03;;;;;;;1.02;0.82;;;24.10;60.20;;;;;;5064596;28;20198;-86
2023/06/01 00:42:32;;;;;;;2.30;1.02;;;24.00;60.00;;;;;;5065520;28;20190;-86
2023/06/01 00:45:00;;;;;;;1.23;0.75;;;24.00;59.90;;;;;;5067401;28;20209;-87
2023/06/01 00:47:28;;;;;;;6.95;1.10;;;24.10;59.80;;;;;;5066284;28;20194;-86
2023/06/01 00:49:57;;;;;;;0.70;0.70;;;24.10;59.80;;;;;;5060188;28;20606;-85
2023/06/01 00:52:25;;;;;;;1.08;0.95;;;24.10;59.70;;;;;;5068090;28;20209;-85
2023/06/01 00:54:54;;;;;;;0.50;0.50;;;24.10;59.60;;;;;;5063077;28;20201;-84
2023/06/01 00:57:26;;;;;;;0.93;0.70;;;24.10;59.60;;;;;;5066283;28;20202;-86
2023/06/01 00:59:55;;;;;;;2.05;0.90;;;24.10;59.50;;;;;;5062447;28;20277;-86
2023/06/01 01:02:24;;;;;;;2.70;1.27;;;24.10;59.40;;;;;;5068286;28;20194;-86
2023/06/01 01:04:52;;;;;;;1.00;0.82;;;24.10;59.30;;;;;;5068042;28;20202;-86
2023/06/01 01:07:26;;;;;;;1.85;1.02;;;24.20;59.30;;;;;;5063314;28;20241;-86
2023/06/01 01:10:01;;;;;;;3.22;1.73;;;24.20;59.20;;;;;;5059490;28;20194;-86
2023/06/01 01:12:35;;;;;;;1.02;0.90;;;24.20;59.10;;;;;;5059968;28;20193;-86
2023/06/01 01:15:13;;;;;;;0.50;0.50;;;24.20;59.00;;;;;;5067788;28;20195;-84
2023/06/01 01:17:45;;;;;;;1.40;0.98;;;24.10;59.00;;;;;;5077300;28;20473;-84
2023/06/01 01:20:17;;;;;;;1.85;1.20;;;24.20;58.90;;;;;;5085144;28;20187;-84
2023/06/01 01:23:05;;;;;;;0.68;0.50;;;24.20;58.90;;;;;;5085306;28;20205;-85
2023/06/01 01:26:06;;;;;;;1.55;0.93;;;24.20;59.00;;;;;;5079540;28;20186;-84
2023/06/01 01:28:42;;;;;;;2.80;1.42;;;24.20;59.10;;;;;;5055159;28;20198;-86
2023/06/01 01:31:14;;;;;;;0.65;0.65;;;24.10;59.20;;;;;;5061565;28;20190;-84
2023/06/01 01:33:44;;;;;;;1.55;1.15;;;24.20;59.20;;;;;;5064933;28;20192;-86
2023/06/01 01:36:13;;;;;;;1.40;1.13;;;24.10;59.20;;;;;;5067311;28;20210;-85
2023/06/01 01:38:42;;;;;;;1.15;0.88;;;24.10;59.20;;;;;;5057860;28;20192;-86
2023/06/01 01:41:10;;;;;;;2.30;0.98;;;24.10;59.20;;;;;;5065055;28;20195;-86
2023/06/01 01:43:41;;;;;;;1.02;0.60;;;24.10;59.30;;;;;;5068948;28;20198;-86
2023/06/01 01:46:22;;;;;;;6.75;1.40;;;24.10;59.30;;;;;;5066574;28;20198;-87
2023/06/01 01:48:56;;;;;;;0.60;0.60;;;24.10;59.30;;;;;;5058212;28;20221;-85
2023/06/01 01:51:29;;;;;;;0.70;0.70;;;24.10;59.40;;;;;;5065825;28;20194;-86
2023/06/01 01:54:00;;;;;;;1.48;0.95;;;24.10;59.40;;;;;;5068743;28;20672;-86
2023/06/01 01:56:30;;;;;;;1.45;0.82;;;24.10;59.50;;;;;;5065881;28;20296;-85
2023/06/01 01:59:01;;;;;;;3.00;0.60;;;24.00;59.60;;;;;;5067599;28;20198;-85
2023/06/01 02:01:30;;;;;;;2.58;1.38;;;24.00;59.70;;;;;;5056958;28;20260;-84
2023/06/01 02:04:07;;;;;;;1.70;1.17;;;24.00;59.70;;;;;;5066863;28;20190;-85
2023/06/01 02:06:36;;;;;;;2.08;0.82;;;24.00;59.80;;;;;;5071165;28;20195;-84
2023/06/01 02:09:07;;;;;;;3.55;1.05;;;23.90;59.80;;;;;;5062709;28;20283;-85
2023/06/01 02:11:36;;;;;;;0.68;0.68;;;24.00;59.90;;;;;;5064826;28;20658;-86
2023/06/01 02:14:06;;;;;;;2.33;1.17;;;23.90;59.90;;;;;;5065508;28;20191;-87
2023/06/01 02:16:35;;;;;;;0.63;0.60;;;23.90;60.00;;;;;;5069671;28;20226;-85
2023/06/01 02:19:04;;;;;;;0.73;0.63;;;23.90;60.00;;;;;;5062590;28;20202;-85
2023/06/01 02:21:32;;;;;;;0.77;0.77;;;23.90;60.10;;;;;;5060258;28;20195;-86
2023/06/01 02:24:04;;;;;;;2.50;0.90;;;23.90;60.20;;;;;;5073738;28;20593;-84
2023/06/01 02:26:33;;;;;;;1.38;0.80;;;23.80;60.20;;;;;;5070324;28;20198;-86
2023/06/01 02:29:04;;;;;;;1.45;1.13;;;23.80;60.30;;;;;;5056846;28;20782;-84
2023/06/01 02:31:35;;;;;;;2.45;1.13;;;23.80;60.50;;;;;;5072343;28;20679;-85
2023/06/01 02:34:04;;;;;;;3.50;1.48;;;23.80;61.50;;;;;;5068688;28;20195;-85
2023/06/01 02:36:34;;;;;;;2.10;1.02;;;23.80;61.60;;;;;;5068407;28;20635;-86
2023/06/01 02:39:03;;;;;;;2.25;1.42;;;23.80;61.60;;;;;;5063686;28;20245;-85
2023/06/01 02:41:31;;;;;;;1.95;0.82;;;23.70;61.60;;;;;;5067053;28;20195;-86
2023/06/01 02:43:59;;;;;;;3.33;1.00;;;23.70;61.80;;;;;;5059858;28;20195;-85
2023/06/01 02:46:28;;;;;;;2.47;1.35;;;23.70;61.90;;;;;;5070070;28;20203;-85
2023/06/01 02:48:58;;;;;;;3.95;0.98;;;23.70;62.40;;;;;;5068683;28;20194;-82
2023/06/01 02:51:26;;;;;;;1.48;0.75;;;23.70;62.30;;;;;;5070554;28;20194;-85
2023/06/01 02:53:54;;;;;;;1.00;0.63;;;23.70;62.20;;;;;;5081364;28;20194;-84
2023/06/01 02:56:26;;;;;;;0.80;0.70;;;23.60;62.20;;;;;;5069515;28;20686;-86
2023/06/01 02:58:54;;;;;;;0.98;0.93;;;23.60;62.20;;;;;;5064010;28;20191;-85
2023/06/01 03:01:23;;;;;;;1.95;1.08;;;23.60;62.50;;;;;;5063639;28;20202;-86
2023/06/01 03:03:52;;;;;;;2.08;1.58;;;23.60;63.10;;;;;;5066146;28;20205;-85
2023/06/01 03:06:22;;;;;;;1.13;1.05;;;23.60;63.30;;;;;;5064190;28;20198;-86
2023/06/01 03:08:51;;;;;;;1.15;0.93;;;23.50;63.60;;;;;;5068664;28;20562;-84
2023/06/01 03:11:19;;;;;;;2.10;1.25;;;23.50;63.70;;;;;;5068720;28;20623;-85
2023/06/01 03:13:48;;;;;;;2.17;1.33;;;23.50;63.70;;;;;;5071727;28;20248;-85
2023/06/01 03:16:17;;;;;;;1.58;1.48;;;23.50;64.10;;;;;;5063992;28;20238;-85
2023/06/01 03:18:45;;;;;;;2.95;1.80;;;23.40;64.10;;;;;;5066133;28;20274;-86
2023/06/01 03:21:15;;;;;;;1.20;1.10;;;23.50;64.60;;;;;;5065267;28;20210;-85
2023/06/01 03:23:45;;;;;;;1.95;1.10;;;23.40;64.70;;;;;;5066131;28;20215;-86
2023/06/01 03:26:14;;;;;;;2.45;1.52;;;23.40;64.90;;;;;;5061705;28;20195;-86
2023/06/01 03:28:42;;;;;;;1.35;0.85;;;23.50;64.80;;;;;;5073131;28;20196;-86
2023/06/01 03:31:12;;;;;;;3.22;1.10;;;23.50;64.70;;;;;;5062692;28;20199;-86
2023/06/01 03:33:40;;;;;;;2.08;1.13;;;23.40;64.40;;;;;;5069601;28;20198;-85
2023/06/01 03:36:09;;;;;;;3.40;0.93;;;23.40;64.40;;;;;;5067629;28;20190;-86
2023/06/01 03:38:37;;;;;;;0.88;0.82;;;23.40;64.40;;;;;;5069451;28;21226;-85
2023/06/01 03:41:07;;;;;;;1.75;1.00;;;23.50;64.40;;;;;;5068253;28;20191;-85
2023/06/01 03:43:35;;;;;;;1.88;1.42;;;23.50;64.50;;;;;;5062640;28;20291;-84
2023/06/01 03:46:04;;;;;;;1.05;0.82;;;23.50;64.80;;;;;;5067854;28;20191;-84
2023/06/01 03:48:32;;;;;;;1.30;1.00;;;23.50;64.70;;;;;;5062875;28;20199;-85
2023/06/01 03:51:01;;;;;;;2.38;1.20;;;23.50;64.90;;;;;;5069187;28;20691;-85
2023/06/01 03:53:33;;;;;;;1.20;0.90;;;23.50;65.00;;;;;;5066444;28;20200;-86
2023/06/01 03:56:02;;;;;;;2.42;1.42;;;23.50;65.20;;;;;;5064831;28;20216;-85
2023/06/01 03:58:32;;;;;;;2.72;1.15;;;23.50;65.30;;;;;;5067768;28;20230;-85
2023/06/01 04:01:02;;;;;;;1.35;0.70;;;23.50;65.30;;;;;;5070645;28;20203;-85
2023/06/01 04:03:31;;;;;;;2.97;0.80;;;23.50;65.20;;;;;;5065719;28;20269;-86
2023/06/01 04:06:01;;;;;;;1.23;1.13;;;23.50;65.30;;;;;;5063147;28;20280;-85
2023/06/01 04:08:30;;;;;;;4.63;0.98;;;23.50;65.60;;;;;;5060390;28;20226;-84
2023/06/01 04:10:59;;;;;;;2.50;1.27;;;23.50;65.90;;;;;;5064485;28;20198;-86
2023/06/01 04:13:28;;;;;;;4.60;1.23;;;23.50;66.10;;;;;;5058760;28;20234;-86
2023/06/01 04:16:00;;;;;;;5.55;1.35;;;23.50;66.10;;;;;;5068825;28;20289;-86
2023/06/01 04:18:28;;;;;;;3.13;1.67;;;23.50;66.30;;;;;;5059723;28;20222;-84
2023/06/01 04:20:57;;;;;;;0.90;0.73;;;23.50;66.50;;;;;;5058442;28;20194;-84
2023/06/01 04:23:25;;;;;;;3.13;1.75;;;23.50;66.60;;;;;;5070933;28;20724;-85
2023/06/01 04:25:59;;;;;;;1.58;1.08;;;23.50;66.80;;;;;;5062550;28;20195;-84
2023/06/01 04:28:28;;;;;;;1.48;0.90;;;23.50;66.60;;;;;;5068867;28;20739;-86
2023/06/01 04:30:57;;;;;;;2.55;1.08;;;23.50;66.80;;;;;;5068976;28;20197;-86
2023/06/01 04:33:27;;;;;;;2.40;1.65;;;23.50;66.90;;;;;;5068801;28;20194;-87
2023/06/01 04:35:56;;;;;;;4.88;1.63;;;23.50;67.10;;;;;;5062175;28;20562;-86
2023/06/01 04:38:25;;;;;;;2.30;1.20;;;23.50;66.80;;;;;;5065393;28;20222;-85
2023/06/01 04:40:55;;;;;;;3.35;1.80;;;23.50;66.90;;;;;;5056178;28;20666;-86
2023/06/01 04:43:23;;;;;;;1.95;0.93;;;23.50;66.80;;;;;;5066221;28;20211;-86
2023/06/01 04:45:52;;;;;;;3.47;2.00;;;23.60;66.90;;;;;;5063825;28;20198;-86
2023/06/01 04:48:21;;;;;;;1.70;1.13;;;23.60;66.90;;;;;;5067637;28;20230;-86
2023/06/01 04:50:51;;;;;;;1.58;1.27;;;23.60;67.10;;;;;;5067196;28;20194;-86
2023/06/01 04:53:20;;;;;;;2.53;1.88;;;23.60;67.20;;;;;;5058832;28;20205;-84
2023/06/01 04:55:50;;;;;;;5.95;1.80;;;23.60;67.60;;;;;;5066901;28;20259;-89
2023/06/01 04:58:19;;;;;;;3.47;1.27;;;23.70;68.30;;;;;;5075977;28;20214;-91
2023/06/01 05:00:47;;;;;;;4.55;2.28;;;23.70;68.40;;;;;;5069522;28;20313;-84
2023/06/01 05:03:16;;;;;;;3.33;1.30;;;23.70;68.10;;;;;;5057291;28;20203;-85
2023/06/01 05:05:46;;;;;;;2.67;1.33;;;23.70;68.00;;;;;;5063215;28;20245;-84
2023/06/01 05:08:16;;;;;;;2.05;1.38;;;23.70;68.40;;;;;;5067222;28;20688;-83
2023/06/01 05:10:44;;;;;;;5.13;2.15;;;23.70;68.80;;;;;;5068838;28;20178;-83
2023/06/01 05:13:13;;;;;;;2.33;1.80;;;23.70;68.70;;;;;;5088996;28;20190;-85
2023/06/01 05:15:41;;;;;;;3.05;2.03;;;23.70;69.20;;;;;;5086993;28;20254;-86
2023/06/01 05:18:09;;;;;;;5.05;1.92;;;23.70;69.00;;;;;;5067046;28;20222;-83
2023/06/01 05:20:38;;;;;;;2.47;1.73;;;23.70;69.00;;;;;;5064429;28;20346;-84
2023/06/01 05:23:06;;;;;;;1.63;1.33;;;23.70;68.70;;;;;;5063633;28;20205;-86
2023/06/01 05:25:36;;;;;;;3.40;1.92;;;23.70;68.50;;;;;;5067420;28;20194;-83
2023/06/01 05:28:05;;;;;;;4.13;2.45;;;23.70;68.60;;;;;;5070531;28;20277;-84
2023/06/01 05:30:33;;;;;;;2.30;1.23;;;23.70;68.40;;;;;;5067339;28;20251;-83
2023/06/01 05:33:03;;;;;;;2.63;1.38;;;23.70;68.30;;;;;;5061485;28;20194;-85
2023/06/01 05:35:31;;;;;;;4.25;1.60;;;23.70;68.30;;;;;;5063330;28;20221;-85
2023/06/01 05:38:00;;;;;;;4.75;1.05;;;23.70;68.20;;;;;;5076515;28;20297;-86
2023/06/01 05:40:29;;;;;;;1.85;1.40;;;23.80;68.60;;;;;;5076875;27;20641;-85
2023/06/01 05:42:59;;;;;;;2.50;1.83;;;23.80;68.80;;;;;;5083138;28;20288;-84
2023/06/01 05:45:28;;;;;;;3.83;1.90;;;23.80;69.10;;;;;;5070265;28;20191;-86
2023/06/01 05:47:56;;;;;;;2.20;1.92;;;23.80;70.20;;;;;;5069782;28;20304;-84
2023/06/01 05:50:25;;;;;;;3.28;2.35;;;23.70;69.50;;;;;;5066516;28;20194;-85
2023/06/01 05:52:54;;;;;;;2.40;1.80;;;23.80;69.10;;;;;;5065272;28;20205;-93
2023/06/01 05:55:23;;;;;;;2.10;1.23;;;23.80;69.10;;;;;;5066053;28;20197;-83
2023/06/01 05:57:51;;;;;;;4.78;2.42;;;23.80;68.80;;;;;;5064355;28;20225;-84
2023/06/01 06:00:22;;;;;;;2.28;1.80;;;23.80;68.70;;;;;;5066969;28;20673;-85
2023/06/01 06:02:50;;;;;;;5.82;2.22;;;23.80;68.50;;;;;;5079983;28;20522;-85
2023/06/01 06:05:20;;;;;;;3.97;1.95;;;23.80;68.80;;;;;;5066047;28;20198;-84
2023/06/01 06:07:48;;;;;;;3.00;1.70;;;23.80;69.10;;;;;;5063533;28;20254;-86
2023/06/01 06:10:17;;;;;;;2.88;1.70;;;23.80;68.90;;;;;;5062457;28;20199;-86
2023/06/01 06:12:45;;;;;;;2.55;2.22;;;23.90;68.90;;;;;;5070296;28;20197;-85
2023/06/01 06:15:14;;;;;;;5.25;2.10;;;23.90;68.90;;;;;;5074994;28;20209;-86
2023/06/01 06:17:44;;;;;;;5.25;2.95;;;23.90;69.30;;;;;;5066991;28;20347;-85
2023/06/01 06:20:15;;;;;;;2.38;1.90;;;23.90;69.40;;;;;;5066992;28;20636;-86
2023/06/01 06:22:43;;;;;;;2.03;1.17;;;23.90;69.30;;;;;;5074899;28;20281;-87
2023/06/01 06:25:12;;;;;;;3.30;1.48;;;24.00;69.10;;;;;;5072455;28;20198;-87
2023/06/01 06:27:41;;;;;;;1.42;0.82;;;24.00;69.00;;;;;;5064280;28;20195;-86
2023/06/01 06:30:10;;;;;;;2.10;1.33;;;24.00;68.90;;;;;;5072956;28;20191;-86
2023/06/01 06:32:39;;;;;;;2.92;1.42;;;24.10;68.80;;;;;;5067882;28;20210;-86
2023/06/01 06:35:12;;;;;;;6.47;1.92;;;24.10;68.80;;;;;;5065727;28;20278;-86
2023/06/01 06:37:41;;;;;;;3.05;2.00;;;24.10;68.70;;;;;;5059055;28;20232;-90
2023/06/01 06:40:11;;;;;;;1.83;1.40;;;24.10;68.60;;;;;;5061971;28;20578;-84
2023/06/01 06:42:39;;;;;;;2.95;1.40;;;24.00;68.40;;;;;;5068444;28;20196;-84
2023/06/01 06:45:08;;;;;;;5.10;2.33;;;24.10;68.30;;;;;;5062574;28;20190;-84
2023/06/01 06:47:38;;;;;;;3.10;1.48;;;24.10;68.30;;;;;;5061358;28;20206;-83
2023/06/01 06:50:10;;;;;;;3.58;2.17;;;24.10;68.40;;;;;;5066320;28;20194;-82
2023/06/01 06:52:38;;;;;;;1.77;1.30;;;24.10;68.30;;;;;;5067436;28;20191;-84
2023/06/01 06:55:07;;;;;;;6.70;2.78;;;24.10;68.20;;;;;;5064989;28;20197;-85
2023/06/01 06:57:36;;;;;;;3.05;1.60;;;24.10;68.10;;;;;;5065644;28;20198;-86
2023/06/01 07:00:05;;;;;;;3.42;1.52;;;24.10;67.90;;;;;;5060170;28;20293;-85
2023/06/01 07:02:33;;;;;;;2.70;1.02;;;24.10;67.80;;;;;;5070658;28;20203;-85
2023/06/01 07:05:03;;;;;;;2.88;1.63;;;24.10;67.70;;;;;;5058576;28;20194;-85
2023/06/01 07:07:33;;;;;;;1.63;1.05;;;24.20;67.60;;;;;;5068208;28;20711;-85
2023/06/01 07:10:02;;;;;;;2.50;1.90;;;24.20;67.60;;;;;;5063697;28;20205;-83
2023/06/01 07:12:30;;;;;;;10.32;2.40;;;24.20;67.70;;;;;;5066350;28;20205;-84
2023/06/01 07:14:58;;;;;;;9.27;1.75;;;24.20;67.60;;;;;;5072164;28;20454;-84
2023/06/01 07:17:27;;;;;;;2.97;1.85;;;24.20;68.00;;;;;;5070917;28;20729;-82
2023/06/01 07:19:55;;;;;;;1.73;0.95;;;24.20;68.00;;;;;;5064208;28;20229;-85
2023/06/01 07:22:24;;;;;;;3.10;1.80;;;24.30;68.00;;;;;;5068538;28;20196;-84
2023/06/01 07:24:53;;;;;;;3.60;1.73;;;24.30;67.90;;;;;;5064452;28;20190;-84
2023/06/01 07:27:22;;;;;;;5.43;1.58;;;24.30;67.90;;;;;;5064404;28;20593;-83
2023/06/01 07:29:54;;;;;;;3.88;1.60;;;24.30;68.00;;;;;;5066587;28;20197;-85
2023/06/01 07:32:23;;;;;;;2.65;2.25;;;24.30;68.60;;;;;;5062810;28;20186;-83
2023/06/01 07:34:52;;;;;;;4.45;1.98;;;24.30;68.90;;;;;;5062622;28;20712;-84
2023/06/01 07:37:21;;;;;;;5.80;1.65;;;24.30;69.30;;;;;;5070230;28;20277;-84
2023/06/01 07:39:50;;;;;;;3.22;1.77;;;24.30;70.50;;;;;;5060008;28;20338;-82
2023/06/01 07:42:20;;;;;;;2.53;1.55;;;24.30;70.00;;;;;;5063474;28;20209;-84
2023/06/01 07:44:49;;;;;;;2.25;1.52;;;24.20;70.20;;;;;;5058992;28;20190;-91
2023/06/01 07:47:17;;;;;;;3.92;1.52;;;24.20;70.20;;;;;;5058089;28;20603;-83
2023/06/01 07:49:46;;;;;;;4.15;2.05;;;24.30;70.80;;;;;;5062794;28;20700;-86
2023/06/01 07:52:14;;;;;;;1.50;1.15;;;24.30;71.20;;;;;;5059656;28;20198;-85
2023/06/01 07:54:43;;;;;;;2.75;1.52;;;24.30;71.30;;;;;;5059675;28;20201;-84
2023/06/01 07:57:11;;;;;;;5.07;2.72;;;24.20;71.90;;;;;;5061297;28;20230;-85
2023/06/01 07:59:41;;;;;;;2.53;1.45;;;24.20;72.30;;;;;;5061985;28;20523;-86
2023/06/01 08:02:10;;;;;;;5.10;2.22;;;24.20;72.60;;;;;;5061787;28;20213;-87
2023/06/01 08:04:40;;;;;;;2.88;2.15;;;24.20;72.90;;;;;;5061129;28;20219;-86
2023/06/01 08:07:12;;;;;;;2.63;1.65;;;24.20;72.90;;;;;;5058000;28;20572;-85
2023/06/01 08:09:42;;;;;;;5.90;2.25;;;24.20;73.00;;;;;;5061143;28;20189;-83
2023/06/01 08:12:11;;;;;;;3.15;1.85;;;24.30;73.20;;;;;;5062963;28;20199;-84
2023/06/01 08:14:44;;;;;;;3.60;1.52;;;24.30;73.20;;;;;;5056515;28;20662;-83
2023/06/01 08:17:13;;;;;;;3.00;1.80;;;24.30;73.80;;;;;;5062644;28;20202;-83
2023/06/01 08:19:42;;;;;;;2.00;1.48;;;24.30;73.50;;;;;;5056625;28;20249;-81
2023/06/01 08:22:12;;;;;;;4.53;2.03;;;24.30;73.40;;;;;;5057574;28;20666;-83
2023/06/01 08:24:41;;;;;;;5.20;1.30;;;24.30;73.30;;;;;;5058192;28;20194;-83
2023/06/01 08:27:19;;;;;;;2.13;1.00;;;24.30;72.90;;;;;;5062077;28;20187;-85
2023/06/01 08:29:54;;;;;;;2.17;1.30;;;24.20;72.50;;;;;;5065782;28;20205;-83
2023/06/01 08:32:23;;;;;;;2.88;2.08;;;24.30;72.20;;;;;;5061071;28;20191;-85
2023/06/01 08:34:51;;;;;;;2.25;1.38;;;24.30;72.20;;;;;;5064048;28;20289;-83
2023/06/01 08:37:20;;;;;;;6.70;2.60;;;24.30;72.30;;;;;;5066222;28;20222;-82
2023/06/01 08:39:48;;;;;;;2.00;1.40;;;24.30;72.90;;;;;;5060162;28;20219;-82
2023/06/01 08:42:21;;;;;;;4.18;2.28;;;24.30;73.00;;;;;;5069252;28;20566;-83
2023/06/01 08:44:55;;;;;;;2.80;1.73;;;24.30;73.50;;;;;;5063841;28;20194;-81
2023/06/01 08:47:25;;;;;;;2.78;1.52;;;24.30;73.80;;;;;;5062434;28;20307;-84
2023/06/01 08:49:58;;;;;;;1.58;1.48;;;24.30;73.80;;;;;;5058847;28;20183;-84
2023/06/01 08:52:28;;;;;;;3.17;1.55;;;24.30;73.80;;;;;;5071115;28;20202;-84
2023/06/01 08:54:58;;;;;;;2.78;1.75;;;24.30;73.90;;;;;;5065098;28;20277;-84
2023/06/01 08:57:28;;;;;;;6.53;2.00;;;24.20;73.70;;;;;;5059618;28;20195;-83
2023/06/01 08:59:58;;;;;;;5.72;2.42;;;24.20;73.70;;;;;;5058289;28;20223;-85
2023/06/01 09:02:28;;;;;;;11.05;2.05;;;24.20;73.70;;;;;;5060010;28;20606;-84
2023/06/01 09:04:56;;;;;;;2.85;1.60;;;24.30;73.80;;;;;;5073789;28;20194;-84
2023/06/01 09:07:25;;;;;;;2.70;1.88;;;24.20;73.70;;;;;;5080634;28;20294;-85
2023/06/01 09:09:54;;;;;;;4.25;2.83;;;24.30;73.80;;;;;;5064401;28;20195;-85
2023/06/01 09:12:25;;;;;;;3.88;1.98;;;24.30;73.70;;;;;;5068813;28;20198;-84
2023/06/01 09:15:11;;;;;;;4.70;2.65;;;24.30;73.70;;;;;;5067524;28;20632;-86
2023/06/01 09:17:41;;;;;;;2.67;1.60;;;24.30;73.60;;;;;;5068146;28;20194;-85
2023/06/01 09:20:14;;;;;;;3.22;1.80;;;24.30;73.40;;;;;;5058515;28;20301;-87
2023/06/01 09:22:45;;;;;;;4.07;1.60;;;24.40;73.20;;;;;;5067280;28;20782;-88
2023/06/01 09:25:14;;;;;;;3.30;1.75;;;24.40;72.80;;;;;;5065170;28;20194;-87
2023/06/01 09:27:45;;;;;;;2.60;1.17;;;24.40;72.60;;;;;;5077196;28;20202;-86
2023/06/01 09:30:16;;;;;;;3.53;1.40;;;24.40;72.10;;;;;;5068365;28;20198;-87
2023/06/01 09:32:50;;;;;;;1.23;1.05;;;24.40;71.60;;;;;;5078612;28;20190;-87
2023/06/01 09:35:38;;;;;;;3.00;1.67;;;24.40;71.10;;;;;;5061178;28;20195;-87
2023/06/01 09:38:07;;;;;;;3.47;1.80;;;24.40;70.70;;;;;;5062380;28;20186;-86
2023/06/01 09:40:38;;;;;;;15.32;1.63;;;24.40;70.00;;;;;;5062122;28;20219;-86
2023/06/01 09:43:21;;;;;;;1.40;1.30;;;24.50;69.80;;;;;;5063822;28;20199;-85
2023/06/01 09:48:49;;;;;;;4.93;1.35;;;24.50;69.10;;;;;;5118157;27;20597;-85
2023/06/01 09:51:25;;;;;;;2.08;1.02;;;24.50;68.20;;;;;;5118297;27;20192;-85
2023/06/01 09:53:54;;;;;;;2.83;1.13;;;24.50;68.40;;;;;;5111540;28;20206;-85
2023/06/01 09:56:23;;;;;;;1.92;1.23;;;24.60;68.60;;;;;;5111899;27;20195;-84
2023/06/01 09:58:58;;;;;;;3.80;1.48;;;24.60;68.20;;;;;;5115758;28;20585;-85
2023/06/01 10:01:30;;;;;;;1.45;0.98;;;24.60;67.70;;;;;;5119680;27;20253;-86
2023/06/01 10:04:02;;;;;;;0.80;0.80;;;24.70;67.70;;;;;;5116571;27;20536;-85
2023/06/01 10:06:35;;;;;;;2.47;1.70;;;24.80;67.60;;;;;;5123771;27;20185;-85
2023/06/01 10:09:04;;;;;;;3.20;1.40;;;24.80;65.60;;;;;;5119258;27;20651;-87
2023/06/01 10:11:34;;;;;;;1.58;1.10;;;24.80;65.50;;;;;;5111395;27;20194;-86
2023/06/01 10:14:03;;;;;;;3.35;1.65;;;24.90;65.90;;;;;;5115877;27;20556;-86
2023/06/01 10:16:34;;;;;;;2.80;1.55;;;25.00;65.70;;;;;;5117634;28;20536;-86
2023/06/01 10:19:04;;;;;;;3.08;1.42;;;25.10;65.80;;;;;;5106770;28;20205;-86
2023/06/01 10:21:34;;;;;;;3.28;0.90;;;25.20;65.60;;;;;;5114583;28;20205;-85
2023/06/01 10:24:03;;;;;;;1.20;1.00;;;25.30;65.30;;;;;;5121818;27;20184;-84
2023/06/01 10:26:37;;;;;;;1.45;1.00;;;25.30;64.50;;;;;;5120106;27;20224;-85
2023/06/01 10:29:08;;;;;;;2.58;1.42;;;25.50;64.60;;;;;;5115701;27;20240;-89
2023/06/01 10:31:38;;;;;;;1.15;0.93;;;25.60;63.70;;;;;;5107773;27;20193;-88
2023/06/01 10:34:10;;;;;;;1.75;1.13;;;25.70;63.30;;;;;;5114114;27;20663;-88
2023/06/01 10:37:16;;;;;;;1.10;0.93;;;25.80;63.30;;;;;;5126720;27;20198;-89
2023/06/01 10:39:47;;;;;;;1.73;1.58;;;25.90;63.30;;;;;;5116155;27;20292;-87
2023/06/01 10:42:38;;;;;;;2.92;1.48;;;26.10;63.40;;;;;;5115881;27;20194;-88
2023/06/01 10:45:38;;;;;;;1.85;1.52;;;26.10;61.30;;;;;;5125653;27;20189;-87
2023/06/01 10:48:08;;;;;;;3.75;1.00;;;26.30;61.20;;;;;;5123747;27;20232;-87
2023/06/01 10:50:38;;;;;;;3.92;1.15;;;26.40;61.30;;;;;;5114434;27;20621;-87
2023/06/01 10:53:28;;;;;;;1.20;1.10;;;26.60;61.80;;;;;;5114124;27;20656;-88
2023/06/01 10:56:24;;;;;;;2.80;1.15;;;26.80;61.40;;;;;;5111805;28;20232;-88
2023/06/01 10:59:11;;;;;;;2.33;1.48;;;26.90;61.00;;;;;;5126231;27;20213;-87
2023/06/01 11:01:48;;;;;;;1.17;0.90;;;27.00;60.50;;;;;;5101168;27;20189;-87
2023/06/01 11:04:35;;;;;;;4.10;1.83;;;27.10;60.40;;;;;;5103273;27;20640;-88
2023/06/01 11:07:39;;;;;;;1.45;0.90;;;27.20;59.40;;;;;;5098440;27;20557;-84
2023/06/01 11:10:08;;;;;;;1.13;1.02;;;27.30;59.50;;;;;;5106087;27;20557;-86
2023/06/01 11:13:10;;;;;;;3.42;1.67;;;27.30;59.30;;;;;;5102411;28;20197;-86
2023/06/01 11:15:40;;;;;;;2.63;1.35;;;27.40;59.60;;;;;;5095467;27;20200;-86
2023/06/01 11:18:44;;;;;;;1.67;1.00;;;27.40;59.00;;;;;;5099133;28;20190;-86
2023/06/01 11:21:17;;;;;;;1.00;0.82;;;27.50;58.80;;;;;;5101899;27;20558;-86
2023/06/01 11:23:47;;;;;;;1.88;1.55;;;27.60;59.10;;;;;;5103965;27;20186;-86
2023/06/01 11:26:17;;;;;;;0.93;0.85;;;27.70;58.30;;;;;;5101251;27;20189;-84
2023/06/01 11:28:47;;;;;;;3.80;1.10;;;27.80;58.40;;;;;;5119814;27;20581;-85
2023/06/01 11:31:17;;;;;;;2.20;1.48;;;27.80;57.80;;;;;;5097912;27;20198;-84
2023/06/01 11:33:52;;;;;;;1.38;1.02;;;27.80;58.00;;;;;;5103486;27;20656;-86
2023/06/01 11:36:24;;;;;;;2.00;0.93;;;27.90;58.00;;;;;;5111304;27;20191;-84
2023/06/01 11:38:55;;;;;;;2.40;1.17;;;27.90;57.60;;;;;;5101454;27;21638;-83
2023/06/01 11:41:24;;;;;;;2.15;0.82;;;28.00;57.30;;;;;;5099934;28;20194;-84
2023/06/01 11:43:56;;;;;;;2.00;1.13;;;28.00;57.40;;;;;;5099784;28;20193;-83
2023/06/01 11:46:26;;;;;;;1.40;0.90;;;28.00;57.40;;;;;;5092073;27;20186;-83
2023/06/01 11:49:02;;;;;;;1.25;0.98;;;28.10;57.30;;;;;;5096114;28;20213;-84
2023/06/01 11:51:32;;;;;;;4.47;1.30;;;28.10;56.40;;;;;;5093999;28;20200;-83
2023/06/01 11:54:03;;;;;;;3.20;1.60;;;28.20;56.30;;;;;;5098465;28;20193;-84
2023/06/01 11:56:33;;;;;;;2.38;1.27;;;28.20;56.00;;;;;;5097359;28;20247;-84
2023/06/01 11:59:04;;;;;;;6.60;2.45;;;28.30;56.00;;;;;;5098812;28;20185;-85
2023/06/01 12:01:32;;;;;;;3.33;1.73;;;28.40;55.70;;;;;;5099904;28;20205;-83
2023/06/01 12:04:02;;;;;;;1.15;0.80;;;28.50;55.90;;;;;;5099640;28;20200;-84
2023/06/01 12:06:30;;;;;;;5.13;1.33;;;28.50;54.50;;;;;;5099436;28;20649;-81
2023/06/01 12:08:59;;;;;;;2.83;0.80;;;28.60;54.20;;;;;;5091080;27;20225;-83
2023/06/01 12:11:30;;;;;;;1.73;1.02;;;28.60;53.90;;;;;;5096966;27;20190;-83
2023/06/01 12:13:59;;;;;;;1.90;1.38;;;28.60;53.60;;;;;;5097810;27;20238;-83
2023/06/01 12:16:55;;;;;;;3.65;1.00;;;28.60;53.30;;;;;;5089458;28;20224;-84
2023/06/01 12:19:24;;;;;;;7.53;1.33;;;28.60;53.50;;;;;;5094486;27;20630;-84
2023/06/01 12:21:53;;;;;;;1.98;0.73;;;28.60;53.80;;;;;;5092501;28;20197;-84
2023/06/01 12:24:28;;;;;;;2.75;1.17;;;28.60;53.50;;;;;;5093149;28;20983;-83
2023/06/01 12:26:59;;;;;;;11.32;1.77;;;28.50;53.60;;;;;;5090917;27;20241;-83
2023/06/01 12:29:38;;;;;;;16.70;1.40;;;28.50;53.70;;;;;;5094782;27;20205;-83
2023/06/01 12:32:08;;;;;;;1.73;1.08;;;28.50;53.40;;;;;;5098025;28;20246;-83
2023/06/01 12:34:37;;;;;;;1.45;0.65;;;28.60;53.10;;;;;;5100253;27;20235;-85
2023/06/01 12:37:16;;;;;;;2.70;1.55;;;28.70;52.50;;;;;;5096386;27;20202;-85
2023/06/01 12:39:45;;;;;;;2.85;1.88;;;28.80;52.50;;;;;;5095763;27;20186;-85
2023/06/01 12:42:15;;;;;;;1.52;1.02;;;28.90;52.10;;;;;;5096160;27;20200;-84
2023/06/01 12:44:43;;;;;;;1.75;0.90;;;29.10;52.10;;;;;;5098063;27;20201;-85
2023/06/01 12:47:11;;;;;;;1.52;1.10;;;29.20;52.10;;;;;;5098923;27;20218;-85
2023/06/01 12:49:40;;;;;;;1.75;1.15;;;29.30;52.00;;;;;;5097367;28;20933;-85
2023/06/01 12:52:09;;;;;;;3.47;1.55;;;29.40;52.20;;;;;;5102766;27;20201;-84
2023/06/01 12:54:37;;;;;;;3.00;1.35;;;29.60;52.20;;;;;;5113855;28;20261;-85
2023/06/01 12:57:15;;;;;;;2.22;0.93;;;29.60;51.70;;;;;;5116018;28;20221;-84
2023/06/01 12:59:44;;;;;;;1.17;0.95;;;29.70;51.30;;;;;;5107854;27;20197;-83
2023/06/01 13:02:13;;;;;;;2.88;1.70;;;29.80;51.20;;;;;;5104172;28;20261;-84
2023/06/01 13:04:43;;;;;;;3.05;1.50;;;29.90;51.00;;;;;;5100254;28;20247;-84
2023/06/01 13:07:11;;;;;;;2.75;1.05;;;29.90;50.70;;;;;;5104358;27;20190;-83